createdAt,value
2023-05-09T00:01:19.933Z,15.10
2023-05-09T00:03:46.949Z,15.10
2023-05-09T00:06:13.572Z,15.10
2023-05-09T00:08:41.182Z,15.10
2023-05-09T00:11:07.701Z,15.10
2023-05-09T00:13:34.603Z,15.10
2023-05-09T00:16:01.343Z,15.20
2023-05-09T00:18:29.887Z,15.20
2023-05-09T00:20:56.677Z,15.20
2023-05-09T00:23:23.675Z,15.20
2023-05-09T00:25:50.741Z,15.20
2023-05-09T00:28:17.343Z,15.20
2023-05-09T00:30:43.921Z,15.20
2023-05-09T00:33:10.624Z,15.30
2023-05-09T00:35:37.237Z,15.30
2023-05-09T00:38:04.012Z,15.30
2023-05-09T00:40:30.690Z,15.30
2023-05-09T00:42:59.392Z,15.30
2023-05-09T00:45:26.181Z,15.30
2023-05-09T00:47:52.957Z,15.30
2023-05-09T00:50:19.805Z,15.30
2023-05-09T00:52:46.595Z,15.20
2023-05-09T00:55:14.151Z,15.30
2023-05-09T00:57:40.921Z,15.30
2023-05-09T01:00:12.822Z,15.30
2023-05-09T01:02:49.376Z,15.30
2023-05-09T01:05:16.718Z,15.30
2023-05-09T01:07:49.315Z,15.30
2023-05-09T01:10:29.572Z,15.30
2023-05-09T01:13:09.847Z,15.30
2023-05-09T01:15:54.123Z,15.30
2023-05-09T01:18:36.261Z,15.30
2023-05-09T01:21:11.152Z,15.30
2023-05-09T01:23:46.790Z,15.20
2023-05-09T01:26:30.656Z,15.20
2023-05-09T01:29:15.685Z,15.20
2023-05-09T01:31:45.117Z,15.20
2023-05-09T01:34:13.302Z,15.20
2023-05-09T01:36:42.213Z,15.20
2023-05-09T01:39:12.515Z,15.20
2023-05-09T01:41:39.474Z,15.20
2023-05-09T01:44:12.114Z,15.20
2023-05-09T01:46:39.994Z,15.20
2023-05-09T01:49:09.217Z,15.20
2023-05-09T01:51:36.755Z,15.20
2023-05-09T01:54:04.476Z,15.20
2023-05-09T01:56:31.808Z,15.10
2023-05-09T01:59:00.645Z,15.10
2023-05-09T02:01:28.333Z,15.00
2023-05-09T02:03:56.520Z,15.00
2023-05-09T02:06:24.710Z,15.00
2023-05-09T02:08:51.577Z,14.90
2023-05-09T02:11:18.511Z,14.80
2023-05-09T02:13:45.140Z,14.80
2023-05-09T02:16:12.103Z,14.80
2023-05-09T02:18:38.807Z,14.70
2023-05-09T02:21:06.352Z,14.70
2023-05-09T02:23:32.922Z,14.60
2023-05-09T02:25:59.822Z,14.50
2023-05-09T02:28:28.202Z,14.50
2023-05-09T02:30:56.898Z,14.50
2023-05-09T02:33:24.120Z,14.40
2023-05-09T02:35:51.941Z,14.40
2023-05-09T02:38:19.586Z,14.40
2023-05-09T02:40:47.421Z,14.40
2023-05-09T02:43:15.358Z,14.40
2023-05-09T02:45:42.219Z,14.30
2023-05-09T02:48:09.440Z,14.20
2023-05-09T02:50:38.148Z,14.20
2023-05-09T02:53:05.220Z,14.20
2023-05-09T02:55:31.756Z,14.20
2023-05-09T02:58:12.075Z,14.10
2023-05-09T03:00:40.489Z,14.00
2023-05-09T03:03:07.269Z,14.00
2023-05-09T03:05:34.087Z,14.00
2023-05-09T03:08:01.256Z,14.00
2023-05-09T03:10:27.859Z,13.90
2023-05-09T03:12:54.442Z,13.90
2023-05-09T03:15:21.430Z,14.00
2023-05-09T03:17:48.236Z,14.00
2023-05-09T03:20:15.631Z,14.00
2023-05-09T03:22:42.406Z,14.10
2023-05-09T03:25:09.412Z,14.10
2023-05-09T03:27:36.039Z,14.10
2023-05-09T03:30:02.732Z,14.00
2023-05-09T03:32:29.323Z,14.00
2023-05-09T03:34:55.955Z,13.90
2023-05-09T03:37:23.299Z,14.00
2023-05-09T03:39:50.513Z,13.90
2023-05-09T03:42:17.007Z,13.90
2023-05-09T03:44:43.635Z,13.80
2023-05-09T03:47:10.380Z,13.80
2023-05-09T03:49:38.104Z,13.80
2023-05-09T03:52:04.856Z,13.80
2023-05-09T03:54:31.418Z,13.80
2023-05-09T03:56:58.025Z,13.80
2023-05-09T03:59:24.625Z,13.80
2023-05-09T04:01:51.377Z,13.90
2023-05-09T04:04:18.074Z,13.90
2023-05-09T04:06:44.839Z,14.00
2023-05-09T04:09:11.561Z,14.00
2023-05-09T04:11:38.100Z,14.10
2023-05-09T04:14:07.146Z,14.10
2023-05-09T04:16:33.833Z,14.20
2023-05-09T04:19:00.452Z,14.20
2023-05-09T04:21:26.988Z,14.30
2023-05-09T04:23:53.548Z,14.40
2023-05-09T04:26:22.859Z,14.40
2023-05-09T04:28:49.458Z,14.50
2023-05-09T04:31:16.550Z,14.60
2023-05-09T04:33:43.147Z,14.80
2023-05-09T04:36:09.790Z,14.90
2023-05-09T04:38:36.339Z,15.00
2023-05-09T04:41:03.052Z,15.10
2023-05-09T04:43:31.030Z,15.20
2023-05-09T04:45:57.734Z,15.30
2023-05-09T04:48:24.388Z,15.40
2023-05-09T04:50:51.042Z,15.40
2023-05-09T04:53:17.532Z,15.40
2023-05-09T04:55:44.115Z,15.40
2023-05-09T04:58:10.634Z,15.40
2023-05-09T05:00:37.190Z,15.40
2023-05-09T05:03:03.824Z,15.40
2023-05-09T05:05:31.965Z,15.50
2023-05-09T05:08:00.335Z,15.60
2023-05-09T05:10:26.950Z,15.60
2023-05-09T05:12:54.248Z,15.70
2023-05-09T05:15:20.969Z,15.70
2023-05-09T05:17:47.574Z,15.80
2023-05-09T05:20:14.294Z,15.90
2023-05-09T05:22:40.918Z,16.00
2023-05-09T05:25:08.113Z,16.00
2023-05-09T05:27:34.654Z,16.10
2023-05-09T05:30:01.177Z,16.10
2023-05-09T05:32:27.935Z,16.10
2023-05-09T05:34:54.478Z,16.10
2023-05-09T05:37:21.286Z,16.10
2023-05-09T05:39:48.407Z,16.20
2023-05-09T05:42:15.257Z,16.20
2023-05-09T05:44:41.922Z,16.30
2023-05-09T05:47:08.470Z,16.40
2023-05-09T05:49:35.020Z,16.50
2023-05-09T05:52:01.623Z,16.60
2023-05-09T05:54:28.252Z,16.70
2023-05-09T05:56:54.866Z,16.80
2023-05-09T05:59:21.468Z,16.90
2023-05-09T06:01:48.037Z,17.10
2023-05-09T06:04:14.740Z,17.20
2023-05-09T06:06:41.413Z,17.40
2023-05-09T06:09:08.008Z,17.70
2023-05-09T06:11:34.585Z,17.80
2023-05-09T06:14:01.248Z,18.10
2023-05-09T06:16:28.248Z,18.30
2023-05-09T06:18:56.150Z,18.70
2023-05-09T06:21:23.147Z,19.00
2023-05-09T06:24:05.897Z,19.40
2023-05-09T06:26:36.690Z,19.50
2023-05-09T06:29:05.834Z,19.50
2023-05-09T06:31:32.923Z,19.50
2023-05-09T06:33:59.465Z,19.30
2023-05-09T06:36:26.140Z,19.30
2023-05-09T06:38:52.745Z,19.20
2023-05-09T06:41:19.295Z,19.10
2023-05-09T06:43:45.809Z,19.10
2023-05-09T06:46:13.100Z,19.10
2023-05-09T06:48:39.631Z,19.10
2023-05-09T06:51:06.181Z,19.10
2023-05-09T06:53:32.743Z,19.10
2023-05-09T06:55:59.426Z,19.10
2023-05-09T06:58:29.221Z,18.90
2023-05-09T07:00:56.469Z,18.90
2023-05-09T07:03:24.133Z,18.90
2023-05-09T07:05:52.316Z,18.90
2023-05-09T07:11:26.885Z,19.20
2023-05-09T07:13:53.464Z,19.20
2023-05-09T07:16:22.822Z,19.50
2023-05-09T07:18:49.457Z,19.50
2023-05-09T07:21:16.079Z,19.90
2023-05-09T07:23:42.635Z,20.20
2023-05-09T07:26:09.173Z,20.60
2023-05-09T07:28:35.711Z,20.90
2023-05-09T07:31:02.377Z,21.00
2023-05-09T07:33:29.086Z,21.00
2023-05-09T07:35:56.263Z,21.00
2023-05-09T07:38:22.884Z,21.20
2023-05-09T07:40:49.490Z,21.60
2023-05-09T07:43:16.049Z,22.00
2023-05-09T07:45:42.563Z,22.10
2023-05-09T07:48:09.522Z,21.90
2023-05-09T07:53:37.042Z,21.60
2023-05-09T07:56:03.677Z,21.30
2023-05-09T07:58:30.227Z,21.00
2023-05-09T08:01:00.209Z,20.70
2023-05-09T08:03:26.815Z,20.60
2023-05-09T08:05:55.575Z,20.40
2023-05-09T08:08:22.937Z,20.20
2023-05-09T08:10:49.708Z,20.20
2023-05-09T08:13:16.325Z,20.00
2023-05-09T08:15:43.000Z,19.80
2023-05-09T08:18:09.998Z,19.50
2023-05-09T08:20:46.737Z,19.50
2023-05-09T08:23:30.074Z,19.50
2023-05-09T08:25:56.809Z,19.30
2023-05-09T08:28:24.284Z,19.20
2023-05-09T08:30:54.318Z,19.10
2023-05-09T08:33:20.897Z,19.00
2023-05-09T08:35:54.202Z,18.90
2023-05-09T08:38:21.017Z,18.70
2023-05-09T08:40:48.071Z,18.70
2023-05-09T08:43:18.885Z,18.70
2023-05-09T08:45:54.062Z,18.80
2023-05-09T08:48:22.500Z,18.90
2023-05-09T08:57:31.645Z,18.80
2023-05-09T08:59:59.415Z,18.80
2023-05-09T09:02:25.978Z,18.80
2023-05-09T09:04:54.802Z,18.80
2023-05-09T09:07:22.851Z,18.80
2023-05-09T09:09:50.298Z,19.00
2023-05-09T09:12:18.199Z,19.10
2023-05-09T09:14:52.655Z,19.30
2023-05-09T09:17:23.558Z,19.60
2023-05-09T09:19:52.781Z,19.70
2023-05-09T09:22:20.743Z,19.70
2023-05-09T09:24:47.565Z,19.70
2023-05-09T09:27:14.279Z,19.60
2023-05-09T09:29:40.970Z,19.50
2023-05-09T09:32:07.904Z,19.50
2023-05-09T09:34:34.502Z,19.40
2023-05-09T09:37:01.212Z,19.30
2023-05-09T09:39:27.797Z,19.30
2023-05-09T09:41:54.418Z,19.20
2023-05-09T09:44:22.471Z,19.10
2023-05-09T09:46:51.207Z,19.00
2023-05-09T09:49:23.001Z,18.90
2023-05-09T09:51:57.564Z,18.80
2023-05-09T09:54:27.807Z,18.90
2023-05-09T09:56:54.933Z,18.90
2023-05-09T09:59:24.798Z,19.00
2023-05-09T10:01:55.007Z,19.00
2023-05-09T10:04:22.363Z,19.10
2023-05-09T10:06:53.343Z,19.10
2023-05-09T10:09:22.105Z,19.00
2023-05-09T10:11:51.111Z,19.10
2023-05-09T10:14:23.246Z,19.00
2023-05-09T10:16:52.036Z,19.10
2023-05-09T10:19:20.828Z,19.20
2023-05-09T10:21:57.539Z,19.40
2023-05-09T10:24:35.363Z,19.30
2023-05-09T10:27:09.704Z,19.40
2023-05-09T10:29:41.405Z,19.50
2023-05-09T10:32:16.944Z,19.60
2023-05-09T10:34:48.293Z,19.80
2023-05-09T10:37:16.702Z,19.80
2023-05-09T10:39:44.059Z,19.90
2023-05-09T10:42:12.360Z,19.90
2023-05-09T10:44:39.124Z,19.90
2023-05-09T10:47:06.722Z,20.00
2023-05-09T10:49:35.541Z,20.10
2023-05-09T10:52:03.925Z,20.20
2023-05-09T10:54:33.627Z,20.20
2023-05-09T10:57:00.860Z,20.30
2023-05-09T10:59:43.278Z,20.40
2023-05-09T11:02:14.989Z,20.60
2023-05-09T11:04:42.042Z,20.90
2023-05-09T11:07:26.251Z,21.20
2023-05-09T11:10:10.300Z,21.60
2023-05-09T11:12:58.228Z,21.90
2023-05-09T11:15:28.512Z,22.20
2023-05-09T11:18:09.873Z,22.30
2023-05-09T11:20:43.606Z,22.00
2023-05-09T11:23:17.221Z,21.90
2023-05-09T11:25:46.612Z,21.70
2023-05-09T11:28:29.417Z,21.50
2023-05-09T11:31:16.610Z,21.70
2023-05-09T11:33:46.556Z,22.50
2023-05-09T11:36:20.573Z,23.00
2023-05-09T11:38:47.677Z,23.00
2023-05-09T11:41:15.187Z,22.60
2023-05-09T11:43:44.270Z,22.20
2023-05-09T11:46:10.839Z,21.70
2023-05-09T11:48:38.930Z,21.40
2023-05-09T11:51:05.619Z,21.40
2023-05-09T11:53:32.281Z,21.40
2023-05-09T11:56:03.122Z,21.40
2023-05-09T11:58:29.835Z,21.30
2023-05-09T12:00:57.606Z,21.20
2023-05-09T12:03:24.950Z,21.00
2023-05-09T12:05:51.903Z,20.80
2023-05-09T12:08:18.577Z,20.70
2023-05-09T12:10:45.357Z,20.40
2023-05-09T12:13:12.145Z,20.20
2023-05-09T12:15:38.977Z,20.20
2023-05-09T12:18:09.586Z,20.20
2023-05-09T12:20:52.430Z,20.30
2023-05-09T12:23:25.025Z,20.50
2023-05-09T12:25:56.092Z,20.70
2023-05-09T12:28:26.764Z,20.80
2023-05-09T12:30:54.080Z,20.80
2023-05-09T12:33:21.504Z,20.80
2023-05-09T12:36:00.570Z,20.80
2023-05-09T12:38:27.041Z,20.80
2023-05-09T12:41:04.750Z,20.60
2023-05-09T12:43:33.182Z,20.40
2023-05-09T12:46:02.025Z,20.30
2023-05-09T12:48:29.749Z,20.20
2023-05-09T12:50:56.394Z,20.20
2023-05-09T12:53:27.448Z,20.30
2023-05-09T12:56:03.465Z,20.30
2023-05-09T12:58:33.782Z,20.30
2023-05-09T13:01:05.621Z,20.40
2023-05-09T13:03:38.475Z,20.40
2023-05-09T13:06:10.799Z,20.30
2023-05-09T13:08:37.506Z,20.30
2023-05-09T13:11:15.558Z,20.30
2023-05-09T13:13:42.992Z,20.40
2023-05-09T13:16:11.134Z,20.60
2023-05-09T13:18:38.635Z,20.90
2023-05-09T13:21:05.548Z,21.20
2023-05-09T13:23:32.440Z,21.40
2023-05-09T13:25:59.079Z,21.60
2023-05-09T13:28:25.870Z,21.70
2023-05-09T13:30:52.537Z,21.90
2023-05-09T13:33:25.723Z,22.00
2023-05-09T13:35:53.431Z,22.10
2023-05-09T13:38:20.180Z,22.10
2023-05-09T13:40:46.792Z,22.00
2023-05-09T13:43:13.395Z,21.90
2023-05-09T13:45:40.165Z,21.80
2023-05-09T13:48:06.889Z,21.60
2023-05-09T13:50:34.168Z,21.60
2023-05-09T13:53:00.845Z,21.70
2023-05-09T13:55:27.705Z,21.80
2023-05-09T13:57:54.811Z,21.70
2023-05-09T14:00:22.137Z,21.60
2023-05-09T14:02:48.872Z,21.50
2023-05-09T14:05:16.874Z,21.30
2023-05-09T14:07:43.722Z,21.20
2023-05-09T14:10:12.153Z,20.90
2023-05-09T14:12:40.612Z,20.70
2023-05-09T14:15:08.431Z,20.70
2023-05-09T14:17:35.323Z,20.70
2023-05-09T14:20:02.192Z,20.70
2023-05-09T14:22:28.801Z,20.70
2023-05-09T14:24:57.384Z,20.60
2023-05-09T14:27:24.935Z,20.60
2023-05-09T14:29:51.539Z,20.50
2023-05-09T14:32:18.153Z,20.60
2023-05-09T14:34:45.542Z,20.50
2023-05-09T14:37:14.905Z,20.40
2023-05-09T14:39:42.458Z,20.30
2023-05-09T14:42:11.381Z,20.20
2023-05-09T14:44:38.637Z,20.20
2023-05-09T14:47:05.403Z,20.00
2023-05-09T14:49:32.397Z,20.00
2023-05-09T14:51:59.308Z,20.00
2023-05-09T14:54:28.870Z,20.00
2023-05-09T14:56:55.493Z,19.90
2023-05-09T14:59:22.099Z,19.90
2023-05-09T15:01:50.798Z,19.90
2023-05-09T15:04:17.550Z,19.80
2023-05-09T15:06:45.084Z,19.80
2023-05-09T15:09:12.723Z,19.70
2023-05-09T15:11:47.825Z,19.70
2023-05-09T15:14:16.270Z,19.70
2023-05-09T15:16:42.987Z,19.70
2023-05-09T15:19:09.734Z,19.60
2023-05-09T15:21:36.350Z,19.50
2023-05-09T15:24:03.679Z,19.50
2023-05-09T15:26:30.464Z,19.40
2023-05-09T15:28:57.015Z,19.40
2023-05-09T15:31:24.778Z,19.30
2023-05-09T15:33:51.758Z,19.20
2023-05-09T15:36:18.315Z,19.10
2023-05-09T15:38:48.343Z,19.00
2023-05-09T15:41:15.604Z,18.90
2023-05-09T15:43:42.412Z,18.60
2023-05-09T15:46:09.246Z,18.50
2023-05-09T15:48:36.193Z,18.20
2023-05-09T15:51:03.909Z,18.00
2023-05-09T15:53:30.616Z,17.80
2023-05-09T15:55:57.200Z,17.60
2023-05-09T15:58:23.807Z,17.50
2023-05-09T16:00:50.707Z,17.50
2023-05-09T16:03:18.174Z,17.40
2023-05-09T16:05:47.586Z,17.30
2023-05-09T16:08:14.344Z,17.30
2023-05-09T16:10:40.911Z,17.30
2023-05-09T16:13:07.796Z,17.30
2023-05-09T16:15:35.011Z,17.30
2023-05-09T16:18:01.805Z,17.40
2023-05-09T16:20:28.458Z,17.40
2023-05-09T16:22:55.070Z,17.40
2023-05-09T16:25:21.620Z,17.40
2023-05-09T16:27:48.122Z,17.40
2023-05-09T16:30:15.526Z,17.40
2023-05-09T16:32:42.786Z,17.40
2023-05-09T16:35:09.660Z,17.40
2023-05-09T16:37:36.282Z,17.40
2023-05-09T16:40:04.221Z,17.30
2023-05-09T16:42:30.839Z,17.30
2023-05-09T16:44:57.581Z,17.30
2023-05-09T16:47:24.255Z,17.30
2023-05-09T16:49:50.815Z,17.20
2023-05-09T16:52:17.534Z,17.10
2023-05-09T16:54:44.109Z,17.10
2023-05-09T16:57:10.740Z,17.00
2023-05-09T16:59:38.330Z,17.00
2023-05-09T17:02:04.948Z,17.00
2023-05-09T17:04:31.797Z,16.90
2023-05-09T17:06:58.573Z,16.90
2023-05-09T17:09:25.834Z,16.80
2023-05-09T17:11:52.348Z,16.80
2023-05-09T17:14:18.847Z,16.80
2023-05-09T17:16:45.548Z,16.70
2023-05-09T17:19:12.172Z,16.60
2023-05-09T17:21:41.377Z,16.50
2023-05-09T17:24:08.885Z,16.50
2023-05-09T17:26:36.042Z,16.40
2023-05-09T17:29:03.617Z,16.40
2023-05-09T17:31:30.310Z,16.30
2023-05-09T17:33:57.006Z,16.30
2023-05-09T17:36:23.886Z,16.30
2023-05-09T17:38:50.525Z,16.30
2023-05-09T17:41:17.264Z,16.30
2023-05-09T17:43:44.994Z,16.30
2023-05-09T17:46:11.648Z,16.30
2023-05-09T17:48:38.675Z,16.30
2023-05-09T17:51:05.240Z,16.30
2023-05-09T17:53:32.281Z,16.30
2023-05-09T17:55:59.152Z,16.30
2023-05-09T17:58:27.485Z,16.30
2023-05-09T18:00:55.072Z,16.30
2023-05-09T18:03:21.853Z,16.20
2023-05-09T18:05:48.785Z,16.30
2023-05-09T18:08:16.789Z,16.30
2023-05-09T18:10:43.644Z,16.30
2023-05-09T18:13:10.761Z,16.20
2023-05-09T18:15:38.456Z,16.20
2023-05-09T18:18:06.196Z,16.30
2023-05-09T18:20:33.008Z,16.30
2023-05-09T18:22:59.803Z,16.20
2023-05-09T18:25:26.364Z,16.20
2023-05-09T18:27:52.980Z,16.20
2023-05-09T18:30:21.715Z,16.20
2023-05-09T18:32:48.442Z,16.20
2023-05-09T18:35:15.922Z,16.20
2023-05-09T18:37:42.482Z,16.10
2023-05-09T18:40:14.502Z,16.10
2023-05-09T18:42:42.089Z,16.00
2023-05-09T18:45:09.871Z,16.00
2023-05-09T18:47:37.343Z,15.90
2023-05-09T18:50:05.196Z,15.90
2023-05-09T18:52:32.269Z,15.80
2023-05-09T18:54:58.855Z,15.80
2023-05-09T18:57:26.018Z,15.70
2023-05-09T18:59:52.900Z,15.70
2023-05-09T19:02:20.434Z,15.60
2023-05-09T19:04:48.108Z,15.60
2023-05-09T19:07:15.187Z,15.50
2023-05-09T19:09:42.267Z,15.50
2023-05-09T19:12:09.689Z,15.50
2023-05-09T19:14:37.792Z,15.40
2023-05-09T19:17:05.507Z,15.30
2023-05-09T19:19:32.482Z,15.20
2023-05-09T19:22:00.089Z,15.20
2023-05-09T19:24:26.824Z,15.20
2023-05-09T19:26:53.354Z,15.20
2023-05-09T19:29:19.926Z,15.20
2023-05-09T19:31:46.558Z,15.10
2023-05-09T19:34:13.389Z,15.10
2023-05-09T19:36:40.059Z,15.10
2023-05-09T19:39:08.610Z,15.10
2023-05-09T19:41:35.269Z,15.10
2023-05-09T19:44:02.129Z,15.10
2023-05-09T19:46:28.800Z,15.10
2023-05-09T19:48:55.425Z,15.10
2023-05-09T19:51:22.052Z,15.00
2023-05-09T19:53:48.691Z,15.00
2023-05-09T19:56:15.494Z,14.90
2023-05-09T19:58:42.241Z,14.90
2023-05-09T20:01:09.284Z,14.90
2023-05-09T20:03:36.949Z,14.80
2023-05-09T20:06:03.933Z,14.80
2023-05-09T20:08:31.513Z,14.80
2023-05-09T20:11:00.072Z,14.70
2023-05-09T20:13:27.341Z,14.70
2023-05-09T20:15:53.983Z,14.70
2023-05-09T20:18:20.656Z,14.70
2023-05-09T20:20:47.354Z,14.70
2023-05-09T20:23:14.089Z,14.70
2023-05-09T20:25:40.750Z,14.70
2023-05-09T20:28:07.283Z,14.70
2023-05-09T20:30:33.812Z,14.70
2023-05-09T20:33:01.142Z,14.70
2023-05-09T20:35:27.835Z,14.70
2023-05-09T20:37:54.521Z,14.70
2023-05-09T20:40:21.097Z,14.70
2023-05-09T20:42:47.697Z,14.70
2023-05-09T20:45:14.280Z,14.70
2023-05-09T20:47:40.846Z,14.70
2023-05-09T20:50:08.061Z,14.70
2023-05-09T20:52:34.610Z,14.70
2023-05-09T20:55:01.914Z,14.70
2023-05-09T20:57:28.565Z,14.70
2023-05-09T20:59:55.227Z,14.70
2023-05-09T21:02:21.965Z,14.60
2023-05-09T21:04:48.634Z,14.70
2023-05-09T21:07:19.068Z,14.70
2023-05-09T21:09:49.568Z,14.70
2023-05-09T21:12:16.653Z,14.70
2023-05-09T21:14:44.446Z,14.70
2023-05-09T21:17:11.264Z,14.70
2023-05-09T21:19:38.075Z,14.70
2023-05-09T21:22:04.692Z,14.60
2023-05-09T21:24:31.242Z,14.60
2023-05-09T21:26:58.658Z,14.50
2023-05-09T21:29:25.967Z,14.50
2023-05-09T21:31:52.932Z,14.50
2023-05-09T21:34:19.611Z,14.40
2023-05-09T21:36:46.145Z,14.50
2023-05-09T21:39:12.717Z,14.40
2023-05-09T21:41:40.426Z,14.40
2023-05-09T21:44:07.698Z,14.40
2023-05-09T21:46:35.367Z,14.40
2023-05-09T21:49:02.123Z,14.40
2023-05-09T21:51:29.263Z,14.40
2023-05-09T21:53:55.802Z,14.40
2023-05-09T21:56:22.868Z,14.40
2023-05-09T21:58:49.428Z,14.30
2023-05-09T22:01:18.344Z,14.40
2023-05-09T22:03:45.523Z,14.30
2023-05-09T22:06:13.271Z,14.40
2023-05-09T22:08:39.871Z,14.30
2023-05-09T22:11:07.553Z,14.30
2023-05-09T22:13:35.711Z,14.30
2023-05-09T22:16:03.635Z,14.30
2023-05-09T22:18:31.100Z,14.30
2023-05-09T22:20:57.716Z,14.30
2023-05-09T22:23:24.364Z,14.30
2023-05-09T22:25:50.891Z,14.20
2023-05-09T22:28:17.492Z,14.20
2023-05-09T22:30:44.037Z,14.20
2023-05-09T22:33:11.175Z,14.20
2023-05-09T22:35:38.012Z,14.20
2023-05-09T22:38:04.577Z,14.20
2023-05-09T22:40:31.155Z,14.20
2023-05-09T22:42:57.717Z,14.20
2023-05-09T22:45:24.258Z,14.20
2023-05-09T22:47:50.950Z,14.20
2023-05-09T22:50:17.907Z,14.30
2023-05-09T22:52:44.685Z,14.30
2023-05-09T22:55:11.349Z,14.30
2023-05-09T22:57:37.948Z,14.20
2023-05-09T23:00:05.017Z,14.20
2023-05-09T23:02:31.756Z,14.20
2023-05-09T23:04:58.549Z,14.30
2023-05-09T23:07:25.379Z,14.30
2023-05-09T23:09:53.186Z,14.30
2023-05-09T23:12:19.821Z,14.20
2023-05-09T23:14:46.769Z,14.20
2023-05-09T23:17:13.383Z,14.20
2023-05-09T23:19:39.913Z,14.20
2023-05-09T23:22:06.530Z,14.20
2023-05-09T23:24:33.130Z,14.20
2023-05-09T23:26:59.726Z,14.20
2023-05-09T23:29:26.336Z,14.20
2023-05-09T23:31:52.870Z,14.20
2023-05-09T23:34:19.490Z,14.20
2023-05-09T23:36:46.095Z,14.20
2023-05-09T23:39:12.662Z,14.20
2023-05-09T23:41:39.234Z,14.30
2023-05-09T23:44:07.527Z,14.30
2023-05-09T23:46:34.342Z,14.30
2023-05-09T23:49:01.095Z,14.30
2023-05-09T23:51:27.647Z,14.00
2023-05-09T23:53:54.254Z,13.90
2023-05-09T23:56:21.199Z,13.80
2023-05-09T23:58:47.760Z,13.70
